createdAt,value
2023-04-15T00:03:16.538Z,8.93
2023-04-15T00:07:16.956Z,8.86
2023-04-15T00:11:17.287Z,8.84
2023-04-15T00:15:16.518Z,8.79
2023-04-15T00:19:15.943Z,8.75
2023-04-15T00:23:15.885Z,8.74
2023-04-15T00:27:16.018Z,8.70
2023-04-15T00:31:15.855Z,8.68
2023-04-15T00:39:16.125Z,8.66
2023-04-15T00:43:15.892Z,8.64
2023-04-15T00:47:17.266Z,8.62
2023-04-15T00:51:15.905Z,8.61
2023-04-15T00:55:16.119Z,8.59
2023-04-15T00:59:16.795Z,8.53
2023-04-15T01:03:16.254Z,8.52
2023-04-15T01:07:16.399Z,8.48
2023-04-15T01:11:16.373Z,8.44
2023-04-15T01:15:16.236Z,8.41
2023-04-15T01:27:16.130Z,8.36
2023-04-15T01:31:16.300Z,8.27
2023-04-15T01:35:16.513Z,8.25
2023-04-15T01:39:16.125Z,8.22
2023-04-15T01:43:16.625Z,8.19
2023-04-15T01:47:16.063Z,8.17
2023-04-15T01:51:16.535Z,8.13
2023-04-15T01:55:16.274Z,8.09
2023-04-15T01:59:16.201Z,7.97
2023-04-15T02:03:17.124Z,7.96
2023-04-15T02:07:16.572Z,7.93
2023-04-15T02:11:16.473Z,7.92
2023-04-15T02:15:16.503Z,7.90
2023-04-15T02:19:16.805Z,7.93
2023-04-15T02:23:16.261Z,7.99
2023-04-15T02:27:17.049Z,8.03
2023-04-15T02:31:16.787Z,8.07
2023-04-15T02:35:18.785Z,8.08
2023-04-15T02:39:17.692Z,8.09
2023-04-15T02:43:16.553Z,8.12
2023-04-15T02:47:16.431Z,8.13
2023-04-15T02:51:18.764Z,8.14
2023-04-15T02:55:17.152Z,8.11
2023-04-15T02:59:16.308Z,8.10
2023-04-15T03:07:17.343Z,8.07
2023-04-15T03:15:16.374Z,8.04
2023-04-15T03:19:16.702Z,7.99
2023-04-15T03:23:16.765Z,8.02
2023-04-15T03:27:16.304Z,8.05
2023-04-15T03:31:16.555Z,7.99
2023-04-15T03:35:16.485Z,7.98
2023-04-15T03:39:16.568Z,7.93
2023-04-15T03:43:16.359Z,7.85
2023-04-15T03:47:16.742Z,7.86
2023-04-15T03:51:16.549Z,7.88
2023-04-15T03:55:16.857Z,7.89
2023-04-15T03:59:16.564Z,7.92
2023-04-15T04:07:17.051Z,7.90
2023-04-15T04:11:16.461Z,7.93
2023-04-15T04:19:18.914Z,7.96
2023-04-15T04:23:16.638Z,8.01
2023-04-15T04:27:16.698Z,7.97
2023-04-15T04:31:17.941Z,7.99
2023-04-15T04:35:16.678Z,7.98
2023-04-15T04:39:16.540Z,8.00
2023-04-15T04:43:16.970Z,7.99
2023-04-15T04:51:17.224Z,7.92
2023-04-15T04:55:16.891Z,7.89
2023-04-15T04:59:17.017Z,7.87
2023-04-15T05:03:17.150Z,7.90
2023-04-15T05:07:16.658Z,7.88
2023-04-15T05:11:16.658Z,7.82
2023-04-15T05:15:16.838Z,7.73
2023-04-15T05:27:18.085Z,7.74
2023-04-15T05:31:16.789Z,7.72
2023-04-15T05:35:16.838Z,7.74
2023-04-15T05:39:16.651Z,7.73
2023-04-15T05:47:16.783Z,7.71
2023-04-15T05:51:16.739Z,7.72
2023-04-15T05:59:17.059Z,7.74
2023-04-15T06:03:17.100Z,7.75
2023-04-15T06:07:16.914Z,7.76
2023-04-15T06:19:17.474Z,7.77
2023-04-15T06:23:16.833Z,7.79
2023-04-15T06:27:17.811Z,7.81
2023-04-15T06:31:17.027Z,7.83
2023-04-15T06:35:17.199Z,7.87
2023-04-15T06:39:16.805Z,7.88
2023-04-15T06:43:17.496Z,7.86
2023-04-15T06:47:17.282Z,7.87
2023-04-15T06:55:16.994Z,7.86
2023-04-15T06:59:17.174Z,7.82
2023-04-15T07:03:17.368Z,7.85
2023-04-15T07:07:17.062Z,7.89
2023-04-15T07:19:17.481Z,7.92
2023-04-15T07:27:17.411Z,7.97
2023-04-15T07:31:17.282Z,8.01
2023-04-15T07:35:17.307Z,8.04
2023-04-15T07:39:17.023Z,8.07
2023-04-15T07:47:17.486Z,8.10
2023-04-15T07:51:18.258Z,8.05
2023-04-15T07:55:19.101Z,8.09
2023-04-15T07:59:17.283Z,8.20
2023-04-15T08:03:17.438Z,8.24
2023-04-15T08:11:17.205Z,8.29
2023-04-15T08:15:17.372Z,8.30
2023-04-15T08:19:17.210Z,8.35
2023-04-15T08:23:17.323Z,8.40
2023-04-15T08:27:17.908Z,8.46
2023-04-15T08:31:18.527Z,8.51
2023-04-15T08:35:17.299Z,8.54
2023-04-15T08:39:17.269Z,8.53
2023-04-15T08:43:23.204Z,8.54
2023-04-15T08:47:21.510Z,8.55
2023-04-15T08:51:17.839Z,8.57
2023-04-15T08:55:17.333Z,8.56
2023-04-15T08:59:17.417Z,8.59
2023-04-15T09:03:18.254Z,8.64
2023-04-15T09:07:17.364Z,8.77
2023-04-15T09:11:19.982Z,8.84
2023-04-15T09:15:17.947Z,8.85
2023-04-15T09:19:21.777Z,8.89
2023-04-15T09:23:17.371Z,8.96
2023-04-15T09:27:17.334Z,8.98
2023-04-15T09:31:28.304Z,9.04
2023-04-15T09:35:17.732Z,9.10
2023-04-15T09:39:17.652Z,9.18
2023-04-15T09:43:17.491Z,9.20
2023-04-15T09:47:26.583Z,9.28
2023-04-15T09:51:17.813Z,9.35
2023-04-15T09:55:17.603Z,9.42
2023-04-15T09:59:18.720Z,9.49
2023-04-15T10:03:20.720Z,9.62
2023-04-15T10:07:21.613Z,9.70
2023-04-15T10:11:18.093Z,9.78
2023-04-15T10:15:18.240Z,9.82
2023-04-15T10:19:21.799Z,9.85
2023-04-15T10:23:19.758Z,9.89
2023-04-15T10:27:18.854Z,9.97
2023-04-15T10:31:19.039Z,10.00
2023-04-15T10:35:20.747Z,10.10
2023-04-15T10:39:37.661Z,10.23
2023-04-15T10:43:26.021Z,10.34
2023-04-15T10:47:20.240Z,10.52
2023-04-15T10:51:27.384Z,10.66
2023-04-15T10:55:19.904Z,10.73
2023-04-15T11:03:36.801Z,10.79
2023-04-15T11:07:37.525Z,10.88
2023-04-15T11:11:17.734Z,10.97
2023-04-15T11:15:29.351Z,11.08
2023-04-15T11:19:17.799Z,11.24
2023-04-15T11:23:19.079Z,11.27
2023-04-15T11:27:21.165Z,11.26
2023-04-15T11:31:18.947Z,11.44
2023-04-15T11:39:21.906Z,11.43
2023-04-15T11:43:20.111Z,11.46
2023-04-15T11:47:22.136Z,11.52
2023-04-15T11:51:19.823Z,11.54
2023-04-15T11:55:17.856Z,11.56
2023-04-15T11:59:17.713Z,11.68
2023-04-15T12:03:21.471Z,11.69
2023-04-15T12:07:18.073Z,11.71
2023-04-15T12:11:18.510Z,11.95
2023-04-15T12:15:21.269Z,12.15
2023-04-15T12:19:23.312Z,12.13
2023-04-15T12:23:18.609Z,12.06
2023-04-15T12:27:17.932Z,12.02
2023-04-15T12:31:18.948Z,11.97
2023-04-15T12:35:18.353Z,12.05
2023-04-15T12:39:21.349Z,12.15
2023-04-15T12:43:18.136Z,12.28
2023-04-15T12:47:17.909Z,12.46
2023-04-15T12:51:18.222Z,12.64
2023-04-15T12:55:17.841Z,12.89
2023-04-15T12:59:18.345Z,13.03
2023-04-15T13:03:18.039Z,13.01
2023-04-15T13:07:18.142Z,13.08
2023-04-15T13:11:19.128Z,13.11
2023-04-15T13:15:19.801Z,13.15
2023-04-15T13:19:17.933Z,13.23
2023-04-15T13:23:18.361Z,13.31
2023-04-15T13:27:17.975Z,13.39
2023-04-15T13:31:18.167Z,13.52
2023-04-15T13:35:18.277Z,13.54
2023-04-15T13:39:18.321Z,13.45
2023-04-15T13:43:17.986Z,13.37
2023-04-15T13:47:18.619Z,13.30
2023-04-15T13:51:18.108Z,13.32
2023-04-15T13:55:21.853Z,13.34
2023-04-15T13:59:18.194Z,13.38
2023-04-15T14:03:18.484Z,13.46
2023-04-15T14:07:18.154Z,13.49
2023-04-15T14:11:18.185Z,13.54
2023-04-15T14:15:18.196Z,13.51
2023-04-15T14:19:18.471Z,13.33
2023-04-15T14:23:18.319Z,13.18
2023-04-15T14:27:18.495Z,13.07
2023-04-15T14:31:18.870Z,13.06
2023-04-15T14:35:18.343Z,13.01
2023-04-15T14:39:18.525Z,12.99
2023-04-15T14:43:18.255Z,13.07
2023-04-15T14:47:18.261Z,13.17
2023-04-15T14:51:18.604Z,13.28
2023-04-15T14:55:18.207Z,13.41
2023-04-15T14:59:18.387Z,13.71
2023-04-15T15:03:18.375Z,13.81
2023-04-15T15:07:18.624Z,13.98
2023-04-15T15:11:18.295Z,14.13
2023-04-15T15:15:28.606Z,14.15
2023-04-15T15:19:18.333Z,14.27
2023-04-15T15:23:18.478Z,14.42
2023-04-15T15:27:18.575Z,14.62
2023-04-15T15:31:18.386Z,14.76
2023-04-15T15:35:18.645Z,14.99
2023-04-15T15:39:18.581Z,15.08
2023-04-15T15:43:18.404Z,15.27
2023-04-15T15:47:20.261Z,15.39
2023-04-15T15:51:19.503Z,15.46
2023-04-15T15:55:18.715Z,15.61
2023-04-15T15:59:18.373Z,15.76
2023-04-15T16:03:18.654Z,15.84
2023-04-15T16:07:18.472Z,15.97
2023-04-15T16:11:18.551Z,16.05
2023-04-15T16:15:18.657Z,16.14
2023-04-15T16:19:19.608Z,16.26
2023-04-15T16:23:19.607Z,16.45
2023-04-15T16:27:18.791Z,16.46
2023-04-15T16:31:18.699Z,16.62
2023-04-15T16:35:18.985Z,16.77
2023-04-15T16:39:18.813Z,16.71
2023-04-15T16:43:18.681Z,16.83
2023-04-15T16:47:18.510Z,16.96
2023-04-15T16:51:19.317Z,17.03
2023-04-15T16:55:18.679Z,17.14
2023-04-15T16:59:18.766Z,17.29
2023-04-15T17:03:18.772Z,17.36
2023-04-15T17:07:18.709Z,17.38
2023-04-15T17:11:18.814Z,17.31
2023-04-15T17:15:19.453Z,17.21
2023-04-15T17:19:18.732Z,17.18
2023-04-15T17:27:18.759Z,17.33
2023-04-15T17:31:18.691Z,17.38
2023-04-15T17:35:18.943Z,17.34
2023-04-15T17:39:18.873Z,17.27
2023-04-15T17:43:19.132Z,17.10
2023-04-15T17:47:19.351Z,16.83
2023-04-15T17:51:18.867Z,16.51
2023-04-15T17:55:18.755Z,16.31
2023-04-15T17:59:19.133Z,16.15
2023-04-15T18:03:19.081Z,15.95
2023-04-15T18:07:18.900Z,15.70
2023-04-15T18:11:18.763Z,15.42
2023-04-15T18:15:19.040Z,15.21
2023-04-15T18:19:20.694Z,15.05
2023-04-15T18:23:18.988Z,14.90
2023-04-15T18:27:19.463Z,14.71
2023-04-15T18:31:19.031Z,14.55
2023-04-15T18:35:19.666Z,14.41
2023-04-15T18:39:18.937Z,14.25
2023-04-15T18:43:18.976Z,14.12
2023-04-15T18:47:19.330Z,14.04
2023-04-15T18:51:18.924Z,13.93
2023-04-15T18:55:19.290Z,13.81
2023-04-15T18:59:29.589Z,13.69
2023-04-15T19:03:19.575Z,13.63
2023-04-15T19:07:19.164Z,13.52
2023-04-15T19:11:19.502Z,13.45
2023-04-15T19:15:19.309Z,13.38
2023-04-15T19:19:19.661Z,13.30
2023-04-15T19:23:19.214Z,13.21
2023-04-15T19:27:19.730Z,13.11
2023-04-15T19:31:19.095Z,13.02
2023-04-15T19:35:19.402Z,12.97
2023-04-15T19:39:19.042Z,12.90
2023-04-15T19:43:19.465Z,12.86
2023-04-15T19:47:20.181Z,12.81
2023-04-15T19:51:19.291Z,12.77
2023-04-15T19:55:19.135Z,12.74
2023-04-15T19:59:19.397Z,12.64
2023-04-15T20:03:19.781Z,12.53
2023-04-15T20:07:19.344Z,12.41
2023-04-15T20:11:20.304Z,12.20
2023-04-15T20:15:21.583Z,12.10
2023-04-15T20:19:19.293Z,12.08
2023-04-15T20:27:20.081Z,12.09
2023-04-15T20:31:19.891Z,12.08
2023-04-15T20:35:19.852Z,12.01
2023-04-15T20:39:19.268Z,11.97
2023-04-15T20:43:20.456Z,11.80
2023-04-15T20:47:19.848Z,11.69
2023-04-15T20:51:19.569Z,11.63
2023-04-15T20:55:19.486Z,11.59
2023-04-15T20:59:19.513Z,11.56
2023-04-15T21:03:19.455Z,11.52
2023-04-15T21:07:19.682Z,11.50
2023-04-15T21:11:38.758Z,11.47
2023-04-15T21:15:19.596Z,11.36
2023-04-15T21:19:19.253Z,11.27
2023-04-15T21:23:19.694Z,11.24
2023-04-15T21:31:20.006Z,11.14
2023-04-15T21:35:19.332Z,11.04
2023-04-15T21:39:19.829Z,10.89
2023-04-15T21:43:21.859Z,10.81
2023-04-15T21:47:19.736Z,10.75
2023-04-15T21:51:19.521Z,10.70
2023-04-15T21:55:20.065Z,10.64
2023-04-15T21:59:19.623Z,10.58
2023-04-15T22:03:19.910Z,10.50
2023-04-15T22:07:19.467Z,10.43
2023-04-15T22:11:25.276Z,10.41
2023-04-15T22:15:19.607Z,10.33
2023-04-15T22:19:20.032Z,10.32
2023-04-15T22:23:19.523Z,10.29
2023-04-15T22:27:19.656Z,10.24
2023-04-15T22:31:19.817Z,10.21
2023-04-15T22:35:19.574Z,10.20
2023-04-15T22:39:19.941Z,10.19
2023-04-15T22:43:19.761Z,10.13
2023-04-15T22:47:19.881Z,10.06
2023-04-15T22:55:19.721Z,10.02
2023-04-15T22:59:19.601Z,9.93
2023-04-15T23:03:19.797Z,9.88
2023-04-15T23:07:19.603Z,9.84
2023-04-15T23:11:20.067Z,9.77
2023-04-15T23:15:20.001Z,9.75
2023-04-15T23:19:19.881Z,9.77
2023-04-15T23:23:19.770Z,9.78
2023-04-15T23:27:20.014Z,9.79
2023-04-15T23:31:19.891Z,9.80
2023-04-15T23:35:20.132Z,9.81
2023-04-15T23:43:19.825Z,9.77
2023-04-15T23:47:20.070Z,9.72
2023-04-15T23:51:20.126Z,9.70
2023-04-15T23:59:20.055Z,9.65
